createdAt,value
2019-06-18T00:00:16.385Z,17.93
2019-06-18T00:01:16.139Z,17.92
2019-06-18T00:02:16.821Z,17.90
2019-06-18T00:03:16.818Z,17.93
2019-06-18T00:04:17.846Z,17.93
2019-06-18T00:05:17.447Z,17.94
2019-06-18T00:06:17.858Z,17.93
2019-06-18T00:07:20.245Z,17.93
2019-06-18T00:08:20.082Z,17.90
2019-06-18T00:09:21.115Z,17.85
2019-06-18T00:10:20.245Z,17.83
2019-06-18T00:11:21.238Z,17.82
2019-06-18T00:12:20.537Z,17.81
2019-06-18T00:13:21.191Z,17.75
2019-06-18T00:14:20.697Z,17.74
2019-06-18T00:15:21.509Z,17.71
2019-06-18T00:16:20.473Z,17.71
2019-06-18T00:17:21.091Z,17.71
2019-06-18T00:18:21.068Z,17.68
2019-06-18T00:19:21.722Z,17.69
2019-06-18T00:20:21.022Z,17.69
2019-06-18T00:21:21.384Z,17.68
2019-06-18T00:22:21.600Z,17.67
2019-06-18T00:23:21.866Z,17.64
2019-06-18T00:24:22.286Z,17.59
2019-06-18T00:25:22.489Z,17.55
2019-06-18T00:26:22.600Z,17.54
2019-06-18T00:27:22.908Z,17.52
2019-06-18T00:28:23.338Z,17.52
2019-06-18T00:29:23.639Z,17.51
2019-06-18T00:30:23.542Z,17.51
2019-06-18T00:31:24.674Z,17.56
2019-06-18T00:32:24.026Z,17.57
2019-06-18T00:33:24.905Z,17.54
2019-06-18T00:34:25.308Z,17.54
2019-06-18T00:35:25.185Z,17.53
2019-06-18T00:36:25.837Z,17.52
2019-06-18T00:37:25.945Z,17.52
2019-06-18T00:38:26.473Z,17.51
2019-06-18T00:39:25.792Z,17.51
2019-06-18T00:40:29.693Z,17.50
2019-06-18T00:41:27.986Z,17.49
2019-06-18T00:42:27.436Z,17.49
2019-06-18T00:43:27.255Z,17.48
2019-06-18T00:44:27.216Z,17.47
2019-06-18T00:45:27.804Z,17.46
2019-06-18T00:46:28.577Z,17.43
2019-06-18T00:47:28.148Z,17.43
2019-06-18T00:48:28.478Z,17.43
2019-06-18T00:49:28.252Z,17.43
2019-06-18T00:50:29.103Z,17.42
2019-06-18T00:51:29.109Z,17.42
2019-06-18T00:52:29.831Z,17.41
2019-06-18T00:53:30.049Z,17.40
2019-06-18T00:54:29.946Z,17.39
2019-06-18T00:55:30.673Z,17.39
2019-06-18T00:56:31.295Z,17.38
2019-06-18T00:57:30.636Z,17.37
2019-06-18T00:58:30.952Z,17.36
2019-06-18T00:59:31.413Z,17.35
2019-06-18T01:00:31.797Z,17.29
2019-06-18T01:01:32.190Z,17.29
2019-06-18T01:02:32.773Z,17.29
2019-06-18T01:03:32.784Z,17.27
2019-06-18T01:04:33.289Z,17.25
2019-06-18T01:05:33.708Z,17.27
2019-06-18T01:06:34.022Z,17.27
2019-06-18T01:07:34.539Z,17.28
2019-06-18T01:08:36.677Z,17.30
2019-06-18T01:09:37.075Z,17.33
2019-06-18T01:10:37.406Z,17.33
2019-06-18T01:11:37.630Z,17.34
2019-06-18T01:12:37.838Z,17.37
2019-06-18T01:13:37.121Z,17.38
2019-06-18T01:14:36.637Z,17.44
2019-06-18T01:15:37.116Z,17.47
2019-06-18T01:16:38.701Z,17.51
2019-06-18T01:17:37.239Z,17.57
2019-06-18T01:18:37.309Z,17.59
2019-06-18T01:19:37.630Z,17.71
2019-06-18T01:20:38.135Z,17.80
2019-06-18T01:21:38.150Z,17.85
2019-06-18T01:22:38.012Z,17.91
2019-06-18T01:23:38.786Z,18.00
2019-06-18T01:24:38.241Z,18.07
2019-06-18T01:25:38.857Z,18.14
2019-06-18T01:26:38.453Z,18.19
2019-06-18T01:27:38.361Z,18.18
2019-06-18T01:28:39.285Z,18.19
2019-06-18T01:29:39.303Z,18.21
2019-06-18T01:30:42.812Z,18.21
2019-06-18T01:31:42.827Z,18.22
2019-06-18T01:32:40.549Z,18.22
2019-06-18T01:33:42.667Z,18.30
2019-06-18T01:34:42.127Z,18.34
2019-06-18T01:35:42.718Z,18.34
2019-06-18T01:36:43.203Z,18.37
2019-06-18T01:37:42.127Z,18.39
2019-06-18T01:38:43.401Z,18.45
2019-06-18T01:40:43.264Z,18.48
2019-06-18T01:41:43.402Z,18.58
2019-06-18T01:42:43.686Z,18.59
2019-06-18T01:43:44.104Z,18.59
2019-06-18T01:44:44.112Z,18.61
2019-06-18T01:45:44.822Z,18.63
2019-06-18T01:46:44.657Z,18.63
2019-06-18T01:47:44.649Z,18.67
2019-06-18T01:48:45.150Z,18.67
2019-06-18T01:49:45.015Z,18.66
2019-06-18T01:50:45.382Z,18.65
2019-06-18T01:51:46.502Z,18.69
2019-06-18T01:52:46.113Z,18.71
2019-06-18T01:53:45.933Z,18.73
2019-06-18T01:54:46.739Z,18.72
2019-06-18T01:56:46.741Z,18.71
2019-06-18T01:57:47.665Z,18.69
2019-06-18T01:58:47.878Z,18.70
2019-06-18T01:59:47.741Z,18.72
2019-06-18T02:00:48.213Z,18.72
2019-06-18T02:01:48.517Z,18.69
2019-06-18T02:02:48.526Z,18.67
2019-06-18T02:03:48.362Z,18.62
2019-06-18T02:04:49.351Z,18.62
2019-06-18T02:05:49.227Z,18.59
2019-06-18T02:06:50.184Z,18.53
2019-06-18T02:07:53.018Z,18.49
2019-06-18T02:08:52.432Z,18.48
2019-06-18T02:09:52.811Z,18.38
2019-06-18T02:10:52.692Z,18.40
2019-06-18T02:11:52.735Z,18.45
2019-06-18T02:12:53.186Z,18.45
2019-06-18T02:13:53.190Z,18.42
2019-06-18T02:14:53.400Z,18.44
2019-06-18T02:15:53.441Z,18.45
2019-06-18T02:16:56.647Z,18.47
2019-06-18T02:17:53.575Z,18.49
2019-06-18T02:18:53.641Z,18.51
2019-06-18T02:19:53.749Z,18.51
2019-06-18T02:20:55.131Z,18.48
2019-06-18T02:21:54.101Z,18.43
2019-06-18T02:22:54.082Z,18.42
2019-06-18T02:23:54.489Z,18.41
2019-06-18T02:24:55.433Z,18.32
2019-06-18T02:25:55.317Z,18.31
2019-06-18T02:26:55.832Z,18.31
2019-06-18T02:27:55.944Z,18.28
2019-06-18T02:28:55.934Z,18.28
2019-06-18T02:29:56.225Z,18.27
2019-06-18T02:30:56.804Z,18.24
2019-06-18T02:31:57.001Z,18.21
2019-06-18T02:33:00.221Z,18.20
2019-06-18T02:33:57.443Z,18.17
2019-06-18T02:34:57.326Z,18.14
2019-06-18T02:35:58.167Z,18.09
2019-06-18T02:36:58.043Z,18.04
2019-06-18T02:37:58.573Z,17.99
2019-06-18T02:38:58.486Z,17.94
2019-06-18T02:39:58.908Z,17.94
2019-06-18T02:40:59.419Z,17.96
2019-06-18T02:41:59.770Z,17.90
2019-06-18T02:42:59.824Z,17.87
2019-06-18T02:44:02.408Z,17.83
2019-06-18T02:45:03.507Z,17.82
2019-06-18T02:46:03.375Z,17.77
2019-06-18T02:47:11.574Z,17.75
2019-06-18T02:48:03.518Z,17.70
2019-06-18T02:49:03.656Z,17.69
2019-06-18T02:50:03.975Z,17.65
2019-06-18T02:51:03.331Z,17.63
2019-06-18T02:52:03.691Z,17.63
2019-06-18T02:53:03.661Z,17.65
2019-06-18T02:55:03.909Z,17.61
2019-06-18T02:56:03.728Z,17.60
2019-06-18T02:57:04.569Z,17.64
2019-06-18T02:58:04.303Z,17.72
2019-06-18T02:59:05.082Z,17.74
2019-06-18T03:00:05.279Z,17.75
2019-06-18T03:01:05.074Z,17.79
2019-06-18T03:02:05.304Z,17.75
2019-06-18T03:03:05.139Z,17.71
2019-06-18T03:04:05.706Z,17.70
2019-06-18T03:05:05.568Z,17.68
2019-06-18T03:06:06.341Z,17.65
2019-06-18T03:07:06.659Z,17.64
2019-06-18T03:08:06.875Z,17.61
2019-06-18T03:09:07.103Z,17.59
2019-06-18T03:10:07.344Z,17.61
2019-06-18T03:11:07.499Z,17.64
2019-06-18T03:12:07.499Z,17.66
2019-06-18T03:13:07.926Z,17.62
2019-06-18T03:14:08.432Z,17.58
2019-06-18T03:15:08.227Z,17.58
2019-06-18T03:16:07.982Z,17.65
2019-06-18T03:17:08.364Z,17.66
2019-06-18T03:18:08.975Z,17.75
2019-06-18T03:19:08.830Z,17.75
2019-06-18T03:20:12.222Z,17.75
2019-06-18T03:21:15.634Z,17.81
2019-06-18T03:22:12.427Z,17.82
2019-06-18T03:23:10.058Z,17.89
2019-06-18T03:24:13.074Z,17.90
2019-06-18T03:25:10.503Z,17.88
2019-06-18T03:26:12.328Z,17.85
2019-06-18T03:27:12.992Z,17.86
2019-06-18T03:28:12.756Z,17.90
2019-06-18T03:29:13.031Z,17.94
2019-06-18T03:30:15.034Z,17.99
2019-06-18T03:31:15.444Z,17.99
2019-06-18T03:32:14.482Z,18.01
2019-06-18T03:34:14.754Z,18.01
2019-06-18T03:35:13.069Z,18.08
2019-06-18T03:36:13.184Z,18.09
2019-06-18T03:37:13.515Z,18.10
2019-06-18T03:38:13.269Z,18.17
2019-06-18T03:39:14.095Z,18.18
2019-06-18T03:40:14.854Z,18.23
2019-06-18T03:41:14.109Z,18.26
2019-06-18T03:42:14.572Z,18.24
2019-06-18T03:43:15.797Z,18.25
2019-06-18T03:44:15.394Z,18.22
2019-06-18T03:45:16.119Z,18.18
2019-06-18T03:46:15.818Z,18.15
2019-06-18T03:47:16.247Z,18.16
2019-06-18T03:48:16.949Z,18.13
2019-06-18T03:49:16.759Z,18.12
2019-06-18T03:50:17.596Z,18.08
2019-06-18T03:51:17.652Z,18.06
2019-06-18T03:52:17.613Z,18.05
2019-06-18T03:53:17.872Z,18.01
2019-06-18T03:54:20.297Z,17.98
2019-06-18T03:55:18.184Z,17.96
2019-06-18T03:56:18.486Z,17.97
2019-06-18T03:57:19.477Z,18.00
2019-06-18T03:58:22.339Z,18.00
2019-06-18T03:59:22.177Z,17.98
2019-06-18T04:00:20.043Z,17.99
2019-06-18T04:01:23.262Z,17.99
2019-06-18T04:02:23.261Z,18.00
2019-06-18T04:03:23.128Z,18.02
2019-06-18T04:04:23.043Z,18.10
2019-06-18T04:05:22.592Z,18.12
2019-06-18T04:06:22.738Z,18.19
2019-06-18T04:07:22.533Z,18.19
2019-06-18T04:08:22.692Z,18.20
2019-06-18T04:09:22.685Z,18.24
2019-06-18T04:10:23.153Z,18.25
2019-06-18T04:11:23.147Z,18.24
2019-06-18T04:12:23.175Z,18.23
2019-06-18T04:13:23.465Z,18.25
2019-06-18T04:14:23.729Z,18.26
2019-06-18T04:15:24.089Z,18.27
2019-06-18T04:16:23.948Z,18.30
2019-06-18T04:17:24.523Z,18.32
2019-06-18T04:18:24.633Z,18.35
2019-06-18T04:19:24.722Z,18.40
2019-06-18T04:20:25.152Z,18.46
2019-06-18T04:21:25.579Z,18.53
2019-06-18T04:22:25.433Z,18.60
2019-06-18T04:23:26.224Z,18.67
2019-06-18T04:24:26.108Z,18.74
2019-06-18T04:25:27.849Z,19.02
2019-06-18T04:26:26.684Z,19.02
2019-06-18T04:27:26.983Z,19.06
2019-06-18T04:28:28.088Z,19.11
2019-06-18T04:29:27.573Z,19.17
2019-06-18T04:30:27.947Z,19.25
2019-06-18T04:31:28.624Z,19.31
2019-06-18T04:32:29.018Z,19.38
2019-06-18T04:33:29.351Z,19.45
2019-06-18T04:34:29.229Z,19.53
2019-06-18T04:35:29.214Z,19.60
2019-06-18T04:36:29.517Z,19.68
2019-06-18T04:37:32.373Z,19.75
2019-06-18T04:38:32.582Z,19.83
2019-06-18T04:39:33.146Z,19.92
2019-06-18T04:40:32.312Z,20.00
2019-06-18T04:41:32.952Z,20.06
2019-06-18T04:42:33.168Z,20.14
2019-06-18T04:43:32.599Z,20.20
2019-06-18T04:44:32.574Z,20.27
2019-06-18T04:45:32.910Z,20.35
2019-06-18T04:46:32.704Z,20.42
2019-06-18T04:47:32.901Z,20.49
2019-06-18T04:48:33.645Z,20.56
2019-06-18T04:49:33.268Z,20.61
2019-06-18T04:50:33.744Z,20.67
2019-06-18T04:51:33.632Z,20.73
2019-06-18T04:52:33.913Z,20.78
2019-06-18T04:53:34.857Z,20.85
2019-06-18T04:54:35.096Z,20.90
2019-06-18T04:55:35.516Z,20.96
2019-06-18T04:56:35.459Z,21.02
2019-06-18T04:57:36.272Z,21.08
2019-06-18T04:58:36.453Z,21.14
2019-06-18T04:59:36.212Z,21.34
2019-06-18T05:00:36.696Z,21.36
2019-06-18T05:01:37.033Z,21.39
2019-06-18T05:02:37.380Z,21.44
2019-06-18T05:03:38.394Z,21.48
2019-06-18T05:04:38.171Z,21.53
2019-06-18T05:05:38.439Z,21.56
2019-06-18T05:06:38.400Z,21.60
2019-06-18T05:07:39.272Z,21.65
2019-06-18T05:08:39.158Z,21.68
2019-06-18T05:09:42.836Z,21.72
2019-06-18T05:10:39.775Z,21.77
2019-06-18T05:11:42.857Z,21.81
2019-06-18T05:12:40.546Z,21.97
2019-06-18T05:13:42.887Z,21.97
2019-06-18T05:14:42.724Z,22.00
2019-06-18T05:15:43.429Z,22.03
2019-06-18T05:16:43.048Z,22.15
2019-06-18T05:18:44.104Z,22.11
2019-06-18T05:19:43.673Z,22.14
2019-06-18T05:20:43.278Z,22.18
2019-06-18T05:21:43.244Z,22.27
2019-06-18T05:22:43.239Z,22.27
2019-06-18T05:23:43.285Z,22.29
2019-06-18T05:24:43.392Z,22.32
2019-06-18T05:25:43.494Z,22.35
2019-06-18T05:26:43.532Z,22.39
2019-06-18T05:28:44.539Z,22.44
2019-06-18T05:29:44.520Z,22.50
2019-06-18T05:30:44.252Z,22.55
2019-06-18T05:31:44.209Z,22.59
2019-06-18T05:32:44.523Z,22.63
2019-06-18T05:33:44.890Z,22.66
2019-06-18T05:34:45.610Z,22.71
2019-06-18T05:35:45.453Z,22.74
2019-06-18T05:36:46.437Z,22.78
2019-06-18T05:37:46.642Z,22.82
2019-06-18T05:38:46.405Z,22.86
2019-06-18T05:39:47.159Z,22.90
2019-06-18T05:41:47.093Z,22.96
2019-06-18T05:42:47.816Z,23.03
2019-06-18T05:43:47.701Z,23.08
2019-06-18T05:44:48.085Z,23.12
2019-06-18T05:45:48.967Z,23.15
2019-06-18T05:46:49.473Z,23.18
2019-06-18T05:47:49.174Z,23.21
2019-06-18T05:48:54.654Z,23.24
2019-06-18T05:49:49.139Z,23.27
2019-06-18T05:50:50.066Z,23.31
2019-06-18T05:51:50.006Z,23.35
2019-06-18T05:52:52.849Z,23.40
2019-06-18T05:53:52.551Z,23.45
2019-06-18T05:54:52.961Z,23.50
2019-06-18T05:55:52.551Z,23.55
2019-06-18T05:56:53.074Z,23.61
2019-06-18T05:57:53.464Z,23.65
2019-06-18T05:58:53.062Z,23.71
2019-06-18T05:59:52.972Z,23.76
2019-06-18T06:00:53.581Z,23.81
2019-06-18T06:01:52.982Z,23.88
2019-06-18T06:02:53.439Z,23.95
2019-06-18T06:03:56.428Z,24.00
2019-06-18T06:04:53.440Z,24.07
2019-06-18T06:05:53.582Z,24.13
2019-06-18T06:06:58.367Z,24.20
2019-06-18T06:07:54.531Z,24.27
2019-06-18T06:08:54.741Z,24.35
2019-06-18T06:10:55.061Z,24.42
2019-06-18T06:11:54.967Z,24.50
2019-06-18T06:12:55.706Z,24.59
2019-06-18T06:13:56.203Z,24.68
2019-06-18T06:14:56.240Z,24.77
2019-06-18T06:15:56.003Z,24.84
2019-06-18T06:16:57.035Z,24.91
2019-06-18T06:17:56.950Z,24.98
2019-06-18T06:19:11.346Z,25.04
2019-06-18T06:19:57.851Z,25.12
2019-06-18T06:20:57.390Z,25.18
2019-06-18T06:21:57.177Z,25.22
2019-06-18T06:22:57.918Z,25.25
2019-06-18T06:23:58.112Z,25.28
2019-06-18T06:24:58.508Z,25.34
2019-06-18T06:25:58.862Z,25.39
2019-06-18T06:26:59.056Z,25.42
2019-06-18T06:27:59.266Z,25.44
2019-06-18T06:28:59.578Z,25.46
2019-06-18T06:29:59.793Z,25.48
2019-06-18T06:31:02.731Z,25.48
2019-06-18T06:32:02.756Z,25.50
2019-06-18T06:33:03.312Z,25.52
2019-06-18T06:34:02.882Z,25.53
2019-06-18T06:35:03.231Z,25.53
2019-06-18T06:36:02.575Z,25.55
2019-06-18T06:37:03.891Z,25.56
2019-06-18T06:38:03.962Z,25.58
2019-06-18T06:39:03.837Z,25.62
2019-06-18T06:40:04.293Z,25.64
2019-06-18T06:41:03.448Z,25.66
2019-06-18T06:42:02.984Z,25.67
2019-06-18T06:43:03.365Z,25.71
2019-06-18T06:44:03.595Z,25.92
2019-06-18T06:45:04.116Z,25.93
2019-06-18T06:46:04.146Z,25.97
2019-06-18T06:47:04.127Z,26.02
2019-06-18T06:48:04.102Z,26.08
2019-06-18T06:49:04.848Z,26.13
2019-06-18T06:50:04.741Z,26.19
2019-06-18T06:51:05.169Z,26.25
2019-06-18T06:52:05.641Z,26.31
2019-06-18T06:53:05.783Z,26.37
2019-06-18T06:54:05.988Z,26.44
2019-06-18T06:55:06.298Z,26.50
2019-06-18T06:56:06.318Z,26.54
2019-06-18T06:57:06.244Z,26.58
2019-06-18T06:58:21.562Z,26.62
2019-06-18T06:59:07.248Z,26.66
2019-06-18T07:00:07.121Z,26.68
2019-06-18T07:01:08.189Z,26.69
2019-06-18T07:02:08.409Z,26.68
2019-06-18T07:03:08.300Z,26.72
2019-06-18T07:04:08.408Z,26.76
2019-06-18T07:05:08.359Z,26.82
2019-06-18T07:06:08.939Z,26.89
2019-06-18T07:07:09.500Z,26.94
2019-06-18T07:08:09.670Z,26.95
2019-06-18T07:09:09.261Z,27.01
2019-06-18T07:10:09.148Z,27.07
2019-06-18T07:11:12.625Z,27.11
2019-06-18T07:12:13.372Z,27.18
2019-06-18T07:13:12.946Z,27.25
2019-06-18T07:14:13.199Z,27.31
2019-06-18T07:15:13.262Z,27.33
2019-06-18T07:16:13.322Z,27.36
2019-06-18T07:17:12.586Z,27.40
2019-06-18T07:18:12.773Z,27.44
2019-06-18T07:19:12.650Z,27.49
2019-06-18T07:20:12.974Z,27.54
2019-06-18T07:21:13.130Z,27.60
2019-06-18T07:22:12.939Z,27.68
2019-06-18T07:23:13.763Z,27.75
2019-06-18T07:24:13.658Z,27.84
2019-06-18T07:25:14.591Z,27.92
2019-06-18T07:26:14.186Z,28.01
2019-06-18T07:27:14.049Z,28.10
2019-06-18T07:28:16.915Z,28.18
2019-06-18T07:29:15.060Z,28.26
2019-06-18T07:30:15.853Z,28.44
2019-06-18T07:31:15.448Z,28.23
2019-06-18T07:32:15.354Z,28.29
2019-06-18T07:33:16.073Z,28.17
2019-06-18T07:34:16.506Z,28.16
2019-06-18T07:35:26.570Z,28.06
2019-06-18T07:36:17.328Z,28.01
2019-06-18T07:37:16.844Z,28.07
2019-06-18T07:38:17.443Z,28.16
2019-06-18T07:39:17.308Z,28.24
2019-06-18T07:40:18.186Z,28.31
2019-06-18T07:41:18.279Z,28.39
2019-06-18T07:42:18.259Z,28.48
2019-06-18T07:43:19.011Z,28.87
2019-06-18T07:44:19.645Z,28.96
2019-06-18T07:45:19.432Z,28.93
2019-06-18T07:46:20.052Z,28.92
2019-06-18T07:47:19.787Z,28.95
2019-06-18T07:48:22.810Z,29.10
2019-06-18T07:49:20.283Z,29.24
2019-06-18T07:50:22.280Z,29.38
2019-06-18T07:51:23.390Z,29.46
2019-06-18T07:52:22.401Z,29.47
2019-06-18T07:53:22.294Z,29.40
2019-06-18T07:54:22.898Z,29.42
2019-06-18T07:55:22.844Z,29.42
2019-06-18T07:56:22.664Z,29.50
2019-06-18T07:57:24.237Z,29.51
2019-06-18T07:58:22.676Z,29.58
2019-06-18T07:59:22.768Z,29.84
2019-06-18T08:00:23.553Z,29.87
2019-06-18T08:01:23.103Z,30.17
2019-06-18T08:02:24.013Z,30.27
2019-06-18T08:03:23.448Z,30.24
2019-06-18T08:04:23.556Z,30.41
2019-06-18T08:06:24.080Z,30.43
2019-06-18T08:07:24.439Z,30.52
2019-06-18T08:08:24.249Z,30.83
2019-06-18T08:09:25.362Z,30.87
2019-06-18T08:10:24.668Z,31.03
2019-06-18T08:11:25.644Z,31.02
2019-06-18T08:12:25.648Z,31.20
2019-06-18T08:13:26.744Z,31.39
2019-06-18T08:14:26.221Z,31.58
2019-06-18T08:15:26.793Z,31.76
2019-06-18T08:16:26.657Z,31.89
2019-06-18T08:17:26.968Z,31.97
2019-06-18T08:18:27.717Z,32.08
2019-06-18T08:19:28.868Z,32.15
2019-06-18T08:20:34.842Z,32.17
2019-06-18T08:21:28.779Z,32.23
2019-06-18T08:22:28.913Z,32.16
2019-06-18T08:23:28.913Z,31.98
2019-06-18T08:24:28.997Z,32.11
2019-06-18T08:25:29.834Z,32.10
2019-06-18T08:26:32.710Z,32.00
2019-06-18T08:27:32.855Z,32.01
2019-06-18T08:28:32.837Z,32.05
2019-06-18T08:29:33.190Z,32.01
2019-06-18T08:30:33.282Z,32.05
2019-06-18T08:31:33.026Z,32.22
2019-06-18T08:32:32.872Z,32.13
2019-06-18T08:33:33.404Z,32.22
2019-06-18T08:34:33.064Z,32.26
2019-06-18T08:35:32.463Z,32.30
2019-06-18T08:36:33.059Z,32.64
2019-06-18T08:37:33.075Z,32.75
2019-06-18T08:38:33.363Z,32.70
2019-06-18T08:39:33.542Z,32.62
2019-06-18T08:40:33.104Z,32.53
2019-06-18T08:41:33.943Z,32.60
2019-06-18T08:42:33.730Z,32.52
2019-06-18T08:43:34.397Z,32.51
2019-06-18T08:44:34.354Z,32.42
2019-06-18T08:45:35.213Z,32.37
2019-06-18T08:46:34.926Z,32.55
2019-06-18T08:47:35.525Z,32.65
2019-06-18T08:48:35.094Z,32.83
2019-06-18T08:49:35.107Z,33.00
2019-06-18T08:50:47.168Z,33.10
2019-06-18T08:51:36.453Z,33.25
2019-06-18T08:52:36.874Z,33.40
2019-06-18T08:53:37.501Z,33.52
2019-06-18T08:54:42.746Z,33.65
2019-06-18T08:55:37.804Z,33.72
2019-06-18T08:56:37.541Z,33.81
2019-06-18T08:57:37.404Z,34.00
2019-06-18T08:58:38.034Z,34.09
2019-06-18T08:59:37.995Z,34.24
2019-06-18T09:00:38.663Z,34.38
2019-06-18T09:01:39.180Z,34.54
2019-06-18T09:02:39.195Z,34.72
2019-06-18T09:03:43.860Z,34.90
2019-06-18T09:04:39.720Z,34.99
2019-06-18T09:05:39.695Z,35.09
2019-06-18T09:06:42.339Z,35.21
2019-06-18T09:07:42.712Z,35.36
2019-06-18T09:08:42.775Z,35.46
2019-06-18T09:09:42.320Z,35.61
2019-06-18T09:10:42.433Z,35.77
2019-06-18T09:11:43.522Z,35.87
2019-06-18T09:12:42.858Z,35.96
2019-06-18T09:13:43.203Z,36.11
2019-06-18T09:14:43.184Z,36.23
2019-06-18T09:15:42.937Z,36.30
2019-06-18T09:16:43.123Z,36.36
2019-06-18T09:17:43.700Z,36.34
2019-06-18T09:18:42.830Z,36.42
2019-06-18T09:19:42.452Z,36.44
2019-06-18T09:20:43.203Z,36.43
2019-06-18T09:21:43.398Z,36.46
2019-06-18T09:22:43.354Z,36.46
2019-06-18T09:23:43.531Z,36.41
2019-06-18T09:24:43.042Z,36.55
2019-06-18T09:25:43.943Z,36.66
2019-06-18T09:26:44.364Z,36.69
2019-06-18T09:27:44.474Z,36.82
2019-06-18T09:28:44.999Z,36.90
2019-06-18T09:29:44.492Z,36.97
2019-06-18T09:30:44.907Z,37.08
2019-06-18T09:31:45.526Z,37.11
2019-06-18T09:32:45.116Z,37.25
2019-06-18T09:33:45.028Z,37.23
2019-06-18T09:34:45.650Z,37.42
2019-06-18T09:35:45.865Z,37.41
2019-06-18T09:36:46.381Z,37.37
2019-06-18T09:37:46.492Z,37.31
2019-06-18T09:38:45.990Z,37.12
2019-06-18T09:39:47.018Z,37.20
2019-06-18T09:40:47.224Z,37.07
2019-06-18T09:41:46.804Z,37.11
2019-06-18T09:42:47.232Z,37.08
2019-06-18T09:43:47.339Z,37.13
2019-06-18T09:44:47.121Z,36.80
2019-06-18T09:45:48.276Z,36.66
2019-06-18T09:46:48.691Z,36.53
2019-06-18T09:47:48.902Z,36.42
2019-06-18T09:48:48.605Z,36.36
2019-06-18T09:49:49.249Z,36.38
2019-06-18T09:50:49.127Z,36.40
2019-06-18T09:51:49.646Z,36.44
2019-06-18T09:52:49.142Z,36.50
2019-06-18T09:53:48.990Z,36.58
2019-06-18T09:54:49.468Z,36.68
2019-06-18T09:55:53.379Z,36.78
2019-06-18T09:56:52.614Z,36.91
2019-06-18T09:57:52.956Z,37.05
2019-06-18T09:58:53.890Z,37.22
2019-06-18T09:59:52.661Z,37.76
2019-06-18T10:00:53.061Z,37.48
2019-06-18T10:01:53.456Z,37.53
2019-06-18T10:02:54.144Z,37.60
2019-06-18T10:03:53.943Z,37.75
2019-06-18T10:04:53.279Z,37.84
2019-06-18T10:05:53.095Z,38.00
2019-06-18T10:06:53.428Z,38.22
2019-06-18T10:07:54.153Z,38.46
2019-06-18T10:08:53.910Z,38.52
2019-06-18T10:09:54.379Z,38.35
2019-06-18T10:10:54.684Z,37.65
2019-06-18T10:11:57.588Z,37.45
2019-06-18T10:12:55.308Z,37.36
2019-06-18T10:13:55.539Z,37.28
2019-06-18T10:14:55.940Z,37.20
2019-06-18T10:15:56.369Z,37.64
2019-06-18T10:16:56.221Z,38.09
2019-06-18T10:17:56.677Z,38.38
2019-06-18T10:18:57.613Z,38.57
2019-06-18T10:19:58.021Z,38.65
2019-06-18T10:20:58.266Z,38.62
2019-06-18T10:21:58.238Z,37.96
2019-06-18T10:22:58.647Z,37.85
2019-06-18T10:23:58.932Z,37.77
2019-06-18T10:24:58.896Z,37.71
2019-06-18T10:26:59.298Z,37.70
2019-06-18T10:27:59.422Z,38.64
2019-06-18T10:29:24.031Z,38.46
2019-06-18T10:30:03.331Z,38.29
2019-06-18T10:31:02.837Z,37.73
2019-06-18T10:32:03.142Z,37.22
2019-06-18T10:33:02.809Z,37.10
2019-06-18T10:34:02.958Z,36.77
2019-06-18T10:35:03.852Z,36.67
2019-06-18T10:36:02.817Z,36.39
2019-06-18T10:37:04.407Z,36.02
2019-06-18T10:38:03.099Z,35.82
2019-06-18T10:39:03.208Z,35.75
2019-06-18T10:40:03.872Z,35.72
2019-06-18T10:41:03.647Z,35.86
2019-06-18T10:42:04.103Z,35.60
2019-06-18T10:43:04.209Z,35.37
2019-06-18T10:44:04.307Z,35.28
2019-06-18T10:45:04.556Z,35.43
2019-06-18T10:46:04.544Z,35.40
2019-06-18T10:47:05.166Z,35.28
2019-06-18T10:48:05.027Z,35.21
2019-06-18T10:49:16.778Z,35.17
2019-06-18T10:50:05.692Z,35.95
2019-06-18T10:51:06.038Z,36.42
2019-06-18T10:52:06.257Z,36.73
2019-06-18T10:53:07.205Z,36.70
2019-06-18T10:54:07.321Z,36.92
2019-06-18T10:55:06.707Z,37.10
2019-06-18T10:56:07.034Z,37.46
2019-06-18T10:57:07.896Z,37.87
2019-06-18T10:58:08.103Z,38.20
2019-06-18T10:59:07.906Z,38.44
2019-06-18T11:00:08.251Z,38.53
2019-06-18T11:01:08.976Z,38.91
2019-06-18T11:02:09.491Z,39.14
2019-06-18T11:03:09.467Z,39.38
2019-06-18T11:04:09.678Z,39.67
2019-06-18T11:05:12.772Z,39.23
2019-06-18T11:06:13.223Z,39.01
2019-06-18T11:07:12.451Z,39.16
2019-06-18T11:08:13.468Z,39.13
2019-06-18T11:09:12.958Z,38.85
2019-06-18T11:10:13.340Z,38.93
2019-06-18T11:11:13.236Z,38.75
2019-06-18T11:12:13.366Z,39.12
2019-06-18T11:13:13.213Z,39.48
2019-06-18T11:14:15.879Z,39.03
2019-06-18T11:15:13.314Z,39.03
2019-06-18T11:16:13.446Z,38.44
2019-06-18T11:17:13.262Z,38.08
2019-06-18T11:18:13.871Z,37.91
2019-06-18T11:19:14.480Z,37.62
2019-06-18T11:20:14.399Z,37.49
2019-06-18T11:21:14.689Z,37.37
2019-06-18T11:22:14.875Z,37.06
2019-06-18T11:23:30.557Z,36.96
2019-06-18T11:24:15.203Z,36.68
2019-06-18T11:25:17.361Z,36.57
2019-06-18T11:26:16.047Z,36.46
2019-06-18T11:27:15.647Z,36.46
2019-06-18T11:28:15.967Z,36.61
2019-06-18T11:29:16.377Z,37.07
2019-06-18T11:30:17.097Z,36.95
2019-06-18T11:31:16.798Z,36.92
2019-06-18T11:32:16.900Z,36.85
2019-06-18T11:33:17.226Z,36.73
2019-06-18T11:34:17.327Z,36.70
2019-06-18T11:36:17.345Z,36.73
2019-06-18T11:37:17.952Z,37.61
2019-06-18T11:38:18.697Z,37.97
2019-06-18T11:39:18.589Z,38.20
2019-06-18T11:40:18.470Z,38.51
2019-06-18T11:41:19.111Z,38.86
2019-06-18T11:42:19.132Z,39.16
2019-06-18T11:43:19.543Z,39.42
2019-06-18T11:44:19.767Z,38.81
2019-06-18T11:45:22.560Z,38.51
2019-06-18T11:46:22.719Z,38.50
2019-06-18T11:47:22.868Z,38.90
2019-06-18T11:48:23.100Z,39.62
2019-06-18T11:49:23.255Z,39.96
2019-06-18T11:50:21.234Z,40.24
2019-06-18T11:51:23.236Z,40.35
2019-06-18T11:52:32.179Z,40.58
2019-06-18T11:53:23.091Z,41.01
2019-06-18T11:54:24.604Z,41.36
2019-06-18T11:55:23.290Z,41.62
2019-06-18T11:56:23.746Z,41.85
2019-06-18T11:57:23.198Z,41.95
2019-06-18T11:58:23.072Z,42.07
2019-06-18T11:59:24.155Z,42.19
2019-06-18T12:00:24.461Z,42.31
2019-06-18T12:01:24.058Z,42.32
2019-06-18T12:02:24.668Z,42.29
2019-06-18T12:03:24.696Z,42.13
2019-06-18T12:04:24.413Z,42.11
2019-06-18T12:05:24.464Z,42.04
2019-06-18T12:06:24.399Z,42.08
2019-06-18T12:07:25.230Z,42.03
2019-06-18T12:09:25.244Z,42.10
2019-06-18T12:10:26.476Z,41.74
2019-06-18T12:11:26.480Z,41.68
2019-06-18T12:12:25.976Z,41.71
2019-06-18T12:13:27.107Z,40.98
2019-06-18T12:14:26.609Z,41.29
2019-06-18T12:15:26.721Z,40.85
2019-06-18T12:16:27.277Z,40.87
2019-06-18T12:17:26.580Z,41.20
2019-06-18T12:18:27.754Z,41.67
2019-06-18T12:19:27.489Z,41.75
2019-06-18T12:20:27.482Z,41.94
2019-06-18T12:21:28.288Z,42.06
2019-06-18T12:22:28.907Z,42.22
2019-06-18T12:23:28.503Z,42.33
2019-06-18T12:24:28.920Z,42.32
2019-06-18T12:25:29.775Z,42.37
2019-06-18T12:26:29.457Z,42.17
2019-06-18T12:27:29.351Z,42.31
2019-06-18T12:28:32.761Z,41.88
2019-06-18T12:29:33.248Z,42.05
2019-06-18T12:30:31.028Z,42.15
2019-06-18T12:31:30.892Z,41.96
2019-06-18T12:32:46.821Z,41.75
2019-06-18T12:33:32.805Z,41.59
2019-06-18T12:34:33.484Z,41.32
2019-06-18T12:35:32.912Z,41.03
2019-06-18T12:36:32.919Z,41.03
2019-06-18T12:37:32.987Z,40.66
2019-06-18T12:38:33.642Z,40.35
2019-06-18T12:39:33.043Z,40.08
2019-06-18T12:40:32.928Z,39.68
2019-06-18T12:41:33.265Z,39.51
2019-06-18T12:42:33.750Z,39.37
2019-06-18T12:43:34.022Z,39.26
2019-06-18T12:44:33.777Z,39.04
2019-06-18T12:45:34.195Z,38.91
2019-06-18T12:46:34.803Z,38.86
2019-06-18T12:47:34.820Z,38.82
2019-06-18T12:48:34.566Z,38.76
2019-06-18T12:49:35.255Z,38.54
2019-06-18T12:50:35.285Z,38.43
2019-06-18T12:51:35.736Z,38.26
2019-06-18T12:52:36.123Z,38.24
2019-06-18T12:53:36.387Z,38.23
2019-06-18T12:54:36.764Z,38.23
2019-06-18T12:55:37.033Z,38.19
2019-06-18T12:56:38.135Z,38.11
2019-06-18T12:57:37.381Z,38.41
2019-06-18T12:58:37.837Z,38.59
2019-06-18T12:59:38.088Z,38.65
2019-06-18T13:00:38.481Z,38.82
2019-06-18T13:01:39.032Z,38.94
2019-06-18T13:02:39.029Z,39.13
2019-06-18T13:03:39.830Z,38.89
2019-06-18T13:04:40.036Z,38.89
2019-06-18T13:05:42.940Z,38.85
2019-06-18T13:06:43.301Z,38.72
2019-06-18T13:07:43.003Z,38.59